sensor_id;sensor_type;location;lat;lon;timestamp;P1;durP1;ratioP1;P2;durP2;ratioP2
56511;SDS011;42408;53.238;5.686;2024-01-30T00:02:16;33.30;;;26.42;;
56511;SDS011;42408;53.238;5.686;2024-01-30T00:04:41;37.87;;;28.33;;
56511;SDS011;42408;53.238;5.686;2024-01-30T00:07:07;38.70;;;28.07;;
56511;SDS011;42408;53.238;5.686;2024-01-30T00:09:33;43.03;;;29.13;;
56511;SDS011;42408;53.238;5.686;2024-01-30T00:11:59;39.37;;;28.47;;
56511;SDS011;42408;53.238;5.686;2024-01-30T00:14:24;39.23;;;27.97;;
56511;SDS011;42408;53.238;5.686;2024-01-30T00:16:50;44.07;;;31.40;;
56511;SDS011;42408;53.238;5.686;2024-01-30T00:19:17;42.33;;;29.00;;
56511;SDS011;42408;53.238;5.686;2024-01-30T00:21:42;47.10;;;31.70;;
56511;SDS011;42408;53.238;5.686;2024-01-30T00:24:08;41.27;;;28.73;;
56511;SDS011;42408;53.238;5.686;2024-01-30T00:26:34;34.70;;;27.23;;
56511;SDS011;42408;53.238;5.686;2024-01-30T00:29:00;35.83;;;27.23;;
56511;SDS011;42408;53.238;5.686;2024-01-30T00:31:25;33.33;;;26.70;;
56511;SDS011;42408;53.238;5.686;2024-01-30T00:33:51;38.37;;;28.47;;
56511;SDS011;42408;53.238;5.686;2024-01-30T00:36:17;48.87;;;32.63;;
56511;SDS011;42408;53.238;5.686;2024-01-30T00:38:42;49.63;;;34.00;;
56511;SDS011;42408;53.238;5.686;2024-01-30T00:41:08;53.33;;;34.80;;
56511;SDS011;42408;53.238;5.686;2024-01-30T00:43:34;46.80;;;31.08;;
56511;SDS011;42408;53.238;5.686;2024-01-30T00:46:00;45.30;;;31.13;;
56511;SDS011;42408;53.238;5.686;2024-01-30T00:48:26;46.90;;;33.47;;
56511;SDS011;42408;53.238;5.686;2024-01-30T00:50:52;43.17;;;30.83;;
56511;SDS011;42408;53.238;5.686;2024-01-30T00:53:18;30.83;;;25.50;;
56511;SDS011;42408;53.238;5.686;2024-01-30T00:55:43;33.70;;;26.30;;
56511;SDS011;42408;53.238;5.686;2024-01-30T00:58:09;33.03;;;27.50;;
56511;SDS011;42408;53.238;5.686;2024-01-30T01:00:34;31.77;;;26.10;;
56511;SDS011;42408;53.238;5.686;2024-01-30T01:03:00;34.33;;;26.63;;
56511;SDS011;42408;53.238;5.686;2024-01-30T01:05:26;36.47;;;27.65;;
56511;SDS011;42408;53.238;5.686;2024-01-30T01:07:52;36.00;;;28.40;;
56511;SDS011;42408;53.238;5.686;2024-01-30T01:10:18;35.17;;;27.08;;
56511;SDS011;42408;53.238;5.686;2024-01-30T01:12:44;34.72;;;26.75;;
56511;SDS011;42408;53.238;5.686;2024-01-30T01:15:10;31.77;;;25.45;;
56511;SDS011;42408;53.238;5.686;2024-01-30T01:17:36;35.93;;;27.53;;
56511;SDS011;42408;53.238;5.686;2024-01-30T01:20:03;34.10;;;27.10;;
56511;SDS011;42408;53.238;5.686;2024-01-30T01:22:30;34.78;;;27.33;;
56511;SDS011;42408;53.238;5.686;2024-01-30T01:27:23;35.22;;;27.35;;
56511;SDS011;42408;53.238;5.686;2024-01-30T01:29:48;36.33;;;27.73;;
56511;SDS011;42408;53.238;5.686;2024-01-30T01:32:14;34.80;;;27.00;;
56511;SDS011;42408;53.238;5.686;2024-01-30T01:34:40;31.97;;;27.13;;
56511;SDS011;42408;53.238;5.686;2024-01-30T01:37:05;38.23;;;28.13;;
56511;SDS011;42408;53.238;5.686;2024-01-30T01:39:32;40.15;;;29.65;;
56511;SDS011;42408;53.238;5.686;2024-01-30T01:41:58;38.33;;;28.17;;
56511;SDS011;42408;53.238;5.686;2024-01-30T01:44:23;39.37;;;29.77;;
56511;SDS011;42408;53.238;5.686;2024-01-30T01:46:49;33.70;;;27.53;;
56511;SDS011;42408;53.238;5.686;2024-01-30T01:49:17;37.35;;;27.45;;
56511;SDS011;42408;53.238;5.686;2024-01-30T01:51:44;35.97;;;28.58;;
56511;SDS011;42408;53.238;5.686;2024-01-30T01:54:12;39.30;;;28.73;;
56511;SDS011;42408;53.238;5.686;2024-01-30T01:56:40;39.83;;;27.83;;
56511;SDS011;42408;53.238;5.686;2024-01-30T01:59:08;36.83;;;27.58;;
56511;SDS011;42408;53.238;5.686;2024-01-30T02:01:35;38.47;;;27.97;;
56511;SDS011;42408;53.238;5.686;2024-01-30T02:04:01;35.58;;;27.75;;
56511;SDS011;42408;53.238;5.686;2024-01-30T02:06:27;37.20;;;28.93;;
56511;SDS011;42408;53.238;5.686;2024-01-30T02:08:53;36.93;;;28.40;;
56511;SDS011;42408;53.238;5.686;2024-01-30T02:11:20;37.58;;;29.10;;
56511;SDS011;42408;53.238;5.686;2024-01-30T02:13:47;39.20;;;29.17;;
56511;SDS011;42408;53.238;5.686;2024-01-30T02:16:13;36.97;;;27.13;;
56511;SDS011;42408;53.238;5.686;2024-01-30T02:18:38;36.97;;;27.23;;
56511;SDS011;42408;53.238;5.686;2024-01-30T02:21:08;36.88;;;28.80;;
56511;SDS011;42408;53.238;5.686;2024-01-30T02:23:34;33.70;;;25.47;;
56511;SDS011;42408;53.238;5.686;2024-01-30T02:26:00;34.90;;;27.50;;
56511;SDS011;42408;53.238;5.686;2024-01-30T02:28:25;34.97;;;27.63;;
56511;SDS011;42408;53.238;5.686;2024-01-30T02:30:52;36.92;;;29.77;;
56511;SDS011;42408;53.238;5.686;2024-01-30T02:33:18;34.95;;;27.38;;
56511;SDS011;42408;53.238;5.686;2024-01-30T02:35:44;37.07;;;27.63;;
56511;SDS011;42408;53.238;5.686;2024-01-30T02:38:09;36.97;;;27.77;;
56511;SDS011;42408;53.238;5.686;2024-01-30T02:40:35;34.47;;;28.20;;
56511;SDS011;42408;53.238;5.686;2024-01-30T02:43:01;36.17;;;26.90;;
56511;SDS011;42408;53.238;5.686;2024-01-30T02:45:27;37.63;;;27.45;;
56511;SDS011;42408;53.238;5.686;2024-01-30T02:47:53;35.83;;;26.03;;
56511;SDS011;42408;53.238;5.686;2024-01-30T02:50:19;39.50;;;28.93;;
56511;SDS011;42408;53.238;5.686;2024-01-30T02:52:44;37.23;;;28.07;;
56511;SDS011;42408;53.238;5.686;2024-01-30T02:55:10;34.93;;;27.43;;
56511;SDS011;42408;53.238;5.686;2024-01-30T02:57:36;38.60;;;28.17;;
56511;SDS011;42408;53.238;5.686;2024-01-30T03:00:03;35.58;;;27.10;;
56511;SDS011;42408;53.238;5.686;2024-01-30T03:02:31;36.83;;;28.65;;
56511;SDS011;42408;53.238;5.686;2024-01-30T03:04:59;33.50;;;26.73;;
56511;SDS011;42408;53.238;5.686;2024-01-30T03:07:25;35.07;;;28.17;;
56511;SDS011;42408;53.238;5.686;2024-01-30T03:09:51;35.03;;;25.97;;
56511;SDS011;42408;53.238;5.686;2024-01-30T03:12:16;33.97;;;26.77;;
56511;SDS011;42408;53.238;5.686;2024-01-30T03:14:42;37.17;;;27.20;;
56511;SDS011;42408;53.238;5.686;2024-01-30T03:17:07;35.60;;;26.77;;
56511;SDS011;42408;53.238;5.686;2024-01-30T03:19:33;39.13;;;27.40;;
56511;SDS011;42408;53.238;5.686;2024-01-30T03:21:59;33.20;;;27.07;;
56511;SDS011;42408;53.238;5.686;2024-01-30T03:24:25;35.03;;;26.43;;
56511;SDS011;42408;53.238;5.686;2024-01-30T03:26:50;35.00;;;28.40;;
56511;SDS011;42408;53.238;5.686;2024-01-30T03:29:16;31.23;;;25.67;;
56511;SDS011;42408;53.238;5.686;2024-01-30T03:31:42;34.53;;;26.10;;
56511;SDS011;42408;53.238;5.686;2024-01-30T03:34:07;34.23;;;27.43;;
56511;SDS011;42408;53.238;5.686;2024-01-30T03:36:33;37.47;;;27.30;;
56511;SDS011;42408;53.238;5.686;2024-01-30T03:38:59;33.78;;;25.98;;
56511;SDS011;42408;53.238;5.686;2024-01-30T03:41:25;36.42;;;25.88;;
56511;SDS011;42408;53.238;5.686;2024-01-30T03:43:51;34.03;;;26.63;;
56511;SDS011;42408;53.238;5.686;2024-01-30T03:46:17;31.83;;;25.67;;
56511;SDS011;42408;53.238;5.686;2024-01-30T03:48:42;35.47;;;26.37;;
56511;SDS011;42408;53.238;5.686;2024-01-30T03:51:08;33.80;;;26.20;;
56511;SDS011;42408;53.238;5.686;2024-01-30T03:53:34;32.00;;;25.40;;
56511;SDS011;42408;53.238;5.686;2024-01-30T03:56:00;32.85;;;25.13;;
56511;SDS011;42408;53.238;5.686;2024-01-30T03:58:26;32.77;;;24.53;;
56511;SDS011;42408;53.238;5.686;2024-01-30T04:00:51;34.47;;;25.70;;
56511;SDS011;42408;53.238;5.686;2024-01-30T04:03:17;37.27;;;25.53;;
56511;SDS011;42408;53.238;5.686;2024-01-30T04:05:43;32.20;;;24.90;;
56511;SDS011;42408;53.238;5.686;2024-01-30T04:08:09;34.50;;;25.27;;
56511;SDS011;42408;53.238;5.686;2024-01-30T04:10:35;32.55;;;25.58;;
56511;SDS011;42408;53.238;5.686;2024-01-30T04:13:00;32.70;;;25.67;;
56511;SDS011;42408;53.238;5.686;2024-01-30T04:15:26;32.37;;;24.90;;
56511;SDS011;42408;53.238;5.686;2024-01-30T04:17:53;33.08;;;24.40;;
56511;SDS011;42408;53.238;5.686;2024-01-30T04:20:18;34.90;;;25.80;;
56511;SDS011;42408;53.238;5.686;2024-01-30T04:22:44;34.23;;;25.27;;
56511;SDS011;42408;53.238;5.686;2024-01-30T04:25:11;31.30;;;24.55;;
56511;SDS011;42408;53.238;5.686;2024-01-30T04:27:37;30.70;;;24.58;;
56511;SDS011;42408;53.238;5.686;2024-01-30T04:30:03;32.87;;;24.83;;
56511;SDS011;42408;53.238;5.686;2024-01-30T04:32:29;32.20;;;25.00;;
56511;SDS011;42408;53.238;5.686;2024-01-30T04:34:55;32.63;;;23.67;;
56511;SDS011;42408;53.238;5.686;2024-01-30T04:37:20;28.83;;;23.97;;
56511;SDS011;42408;53.238;5.686;2024-01-30T04:39:46;31.43;;;24.20;;
56511;SDS011;42408;53.238;5.686;2024-01-30T04:42:12;32.20;;;23.23;;
56511;SDS011;42408;53.238;5.686;2024-01-30T04:44:38;32.27;;;23.10;;
56511;SDS011;42408;53.238;5.686;2024-01-30T04:47:03;31.17;;;23.93;;
56511;SDS011;42408;53.238;5.686;2024-01-30T04:49:31;29.98;;;23.42;;
56511;SDS011;42408;53.238;5.686;2024-01-30T04:51:57;29.00;;;22.63;;
56511;SDS011;42408;53.238;5.686;2024-01-30T04:54:23;30.50;;;22.38;;
56511;SDS011;42408;53.238;5.686;2024-01-30T04:56:49;29.80;;;23.27;;
56511;SDS011;42408;53.238;5.686;2024-01-30T04:59:15;33.37;;;24.33;;
56511;SDS011;42408;53.238;5.686;2024-01-30T05:01:40;27.33;;;21.33;;
56511;SDS011;42408;53.238;5.686;2024-01-30T05:04:09;30.03;;;23.07;;
56511;SDS011;42408;53.238;5.686;2024-01-30T05:06:35;31.10;;;22.70;;
56511;SDS011;42408;53.238;5.686;2024-01-30T05:09:00;29.53;;;22.23;;
56511;SDS011;42408;53.238;5.686;2024-01-30T05:11:26;28.07;;;22.50;;
56511;SDS011;42408;53.238;5.686;2024-01-30T05:13:51;30.23;;;23.23;;
56511;SDS011;42408;53.238;5.686;2024-01-30T05:16:17;29.80;;;22.93;;
56511;SDS011;42408;53.238;5.686;2024-01-30T05:18:43;29.50;;;22.37;;
56511;SDS011;42408;53.238;5.686;2024-01-30T05:21:09;33.07;;;23.80;;
56511;SDS011;42408;53.238;5.686;2024-01-30T05:23:35;29.85;;;21.25;;
56511;SDS011;42408;53.238;5.686;2024-01-30T05:26:01;30.90;;;21.53;;
56511;SDS011;42408;53.238;5.686;2024-01-30T05:28:28;29.77;;;21.98;;
56511;SDS011;42408;53.238;5.686;2024-01-30T05:30:55;29.85;;;21.35;;
56511;SDS011;42408;53.238;5.686;2024-01-30T05:33:21;28.02;;;22.42;;
56511;SDS011;42408;53.238;5.686;2024-01-30T05:35:47;28.83;;;22.23;;
56511;SDS011;42408;53.238;5.686;2024-01-30T05:38:13;27.45;;;21.08;;
56511;SDS011;42408;53.238;5.686;2024-01-30T05:40:40;27.25;;;20.65;;
56511;SDS011;42408;53.238;5.686;2024-01-30T05:43:05;30.40;;;21.47;;
56511;SDS011;42408;53.238;5.686;2024-01-30T05:45:33;29.20;;;21.35;;
56511;SDS011;42408;53.238;5.686;2024-01-30T05:48:00;28.55;;;21.70;;
56511;SDS011;42408;53.238;5.686;2024-01-30T05:50:25;26.83;;;20.07;;
56511;SDS011;42408;53.238;5.686;2024-01-30T05:52:52;30.90;;;21.20;;
56511;SDS011;42408;53.238;5.686;2024-01-30T05:55:18;27.70;;;20.50;;
56511;SDS011;42408;53.238;5.686;2024-01-30T05:57:43;28.27;;;19.80;;
56511;SDS011;42408;53.238;5.686;2024-01-30T06:00:09;29.97;;;21.57;;
56511;SDS011;42408;53.238;5.686;2024-01-30T06:02:35;26.38;;;19.92;;
56511;SDS011;42408;53.238;5.686;2024-01-30T06:05:01;27.50;;;20.43;;
56511;SDS011;42408;53.238;5.686;2024-01-30T06:07:27;26.33;;;20.43;;
56511;SDS011;42408;53.238;5.686;2024-01-30T06:09:52;32.03;;;21.47;;
56511;SDS011;42408;53.238;5.686;2024-01-30T06:12:18;27.27;;;20.00;;
56511;SDS011;42408;53.238;5.686;2024-01-30T06:14:44;28.40;;;20.70;;
56511;SDS011;42408;53.238;5.686;2024-01-30T06:17:09;31.03;;;20.60;;
56511;SDS011;42408;53.238;5.686;2024-01-30T06:19:37;28.45;;;19.70;;
56511;SDS011;42408;53.238;5.686;2024-01-30T06:22:03;26.08;;;20.42;;
56511;SDS011;42408;53.238;5.686;2024-01-30T06:24:29;27.87;;;19.40;;
56511;SDS011;42408;53.238;5.686;2024-01-30T06:26:55;25.77;;;20.03;;
56511;SDS011;42408;53.238;5.686;2024-01-30T06:29:21;27.93;;;20.67;;
56511;SDS011;42408;53.238;5.686;2024-01-30T06:31:46;27.83;;;20.87;;
56511;SDS011;42408;53.238;5.686;2024-01-30T06:34:12;28.83;;;21.03;;
56511;SDS011;42408;53.238;5.686;2024-01-30T06:36:38;25.87;;;20.23;;
56511;SDS011;42408;53.238;5.686;2024-01-30T06:39:04;27.20;;;18.93;;
56511;SDS011;42408;53.238;5.686;2024-01-30T06:41:30;26.80;;;19.85;;
56511;SDS011;42408;53.238;5.686;2024-01-30T06:43:56;27.23;;;19.77;;
56511;SDS011;42408;53.238;5.686;2024-01-30T06:46:22;28.93;;;21.27;;
56511;SDS011;42408;53.238;5.686;2024-01-30T06:48:47;24.20;;;18.53;;
56511;SDS011;42408;53.238;5.686;2024-01-30T06:51:13;23.20;;;18.10;;
56511;SDS011;42408;53.238;5.686;2024-01-30T06:53:39;27.33;;;19.25;;
56511;SDS011;42408;53.238;5.686;2024-01-30T06:56:05;29.73;;;18.57;;
56511;SDS011;42408;53.238;5.686;2024-01-30T06:58:31;29.40;;;19.30;;
56511;SDS011;42408;53.238;5.686;2024-01-30T07:00:57;26.88;;;19.17;;
56511;SDS011;42408;53.238;5.686;2024-01-30T07:03:23;24.73;;;17.97;;
56511;SDS011;42408;53.238;5.686;2024-01-30T07:05:49;26.43;;;18.57;;
56511;SDS011;42408;53.238;5.686;2024-01-30T07:08:15;26.43;;;19.27;;
56511;SDS011;42408;53.238;5.686;2024-01-30T07:10:44;25.08;;;18.75;;
56511;SDS011;42408;53.238;5.686;2024-01-30T07:13:12;26.40;;;19.83;;
56511;SDS011;42408;53.238;5.686;2024-01-30T07:15:38;24.70;;;18.17;;
56511;SDS011;42408;53.238;5.686;2024-01-30T07:18:04;25.60;;;18.73;;
56511;SDS011;42408;53.238;5.686;2024-01-30T07:20:30;26.13;;;19.13;;
56511;SDS011;42408;53.238;5.686;2024-01-30T07:22:59;26.38;;;19.40;;
56511;SDS011;42408;53.238;5.686;2024-01-30T07:25:25;24.48;;;18.40;;
56511;SDS011;42408;53.238;5.686;2024-01-30T07:27:55;25.52;;;19.13;;
56511;SDS011;42408;53.238;5.686;2024-01-30T07:30:21;25.35;;;19.13;;
56511;SDS011;42408;53.238;5.686;2024-01-30T07:35:14;24.27;;;17.15;;
56511;SDS011;42408;53.238;5.686;2024-01-30T07:37:39;27.77;;;18.92;;
56511;SDS011;42408;53.238;5.686;2024-01-30T07:40:05;22.83;;;15.93;;
56511;SDS011;42408;53.238;5.686;2024-01-30T07:42:32;25.38;;;18.75;;
56511;SDS011;42408;53.238;5.686;2024-01-30T07:44:58;24.83;;;17.77;;
56511;SDS011;42408;53.238;5.686;2024-01-30T07:47:25;22.48;;;17.30;;
56511;SDS011;42408;53.238;5.686;2024-01-30T07:49:50;23.90;;;17.43;;
56511;SDS011;42408;53.238;5.686;2024-01-30T07:52:16;25.83;;;17.60;;
56511;SDS011;42408;53.238;5.686;2024-01-30T07:54:42;24.30;;;18.53;;
56511;SDS011;42408;53.238;5.686;2024-01-30T07:57:17;23.20;;;16.92;;
56511;SDS011;42408;53.238;5.686;2024-01-30T07:59:43;24.98;;;17.65;;
56511;SDS011;42408;53.238;5.686;2024-01-30T08:02:09;25.67;;;17.85;;
56511;SDS011;42408;53.238;5.686;2024-01-30T08:04:37;24.08;;;17.15;;
56511;SDS011;42408;53.238;5.686;2024-01-30T08:07:03;24.50;;;17.60;;
56511;SDS011;42408;53.238;5.686;2024-01-30T08:09:28;22.60;;;17.37;;
56511;SDS011;42408;53.238;5.686;2024-01-30T08:11:54;23.50;;;16.60;;
56511;SDS011;42408;53.238;5.686;2024-01-30T08:14:20;22.13;;;16.53;;
56511;SDS011;42408;53.238;5.686;2024-01-30T08:16:45;25.60;;;17.80;;
56511;SDS011;42408;53.238;5.686;2024-01-30T08:19:11;22.60;;;15.97;;
56511;SDS011;42408;53.238;5.686;2024-01-30T08:21:37;21.63;;;15.90;;
56511;SDS011;42408;53.238;5.686;2024-01-30T08:24:03;22.90;;;15.90;;
56511;SDS011;42408;53.238;5.686;2024-01-30T08:26:30;21.63;;;17.10;;
56511;SDS011;42408;53.238;5.686;2024-01-30T08:28:56;22.55;;;17.33;;
56511;SDS011;42408;53.238;5.686;2024-01-30T08:31:21;21.57;;;16.23;;
56511;SDS011;42408;53.238;5.686;2024-01-30T08:33:48;22.42;;;17.15;;
56511;SDS011;42408;53.238;5.686;2024-01-30T08:36:15;25.00;;;17.53;;
56511;SDS011;42408;53.238;5.686;2024-01-30T08:38:41;23.20;;;16.33;;
56511;SDS011;42408;53.238;5.686;2024-01-30T08:41:07;21.37;;;15.93;;
56511;SDS011;42408;53.238;5.686;2024-01-30T08:43:33;21.23;;;15.47;;
56511;SDS011;42408;53.238;5.686;2024-01-30T08:46:02;21.93;;;16.03;;
56511;SDS011;42408;53.238;5.686;2024-01-30T08:48:28;24.80;;;16.30;;
56511;SDS011;42408;53.238;5.686;2024-01-30T08:50:54;23.30;;;15.43;;
56511;SDS011;42408;53.238;5.686;2024-01-30T08:53:19;22.93;;;17.03;;
56511;SDS011;42408;53.238;5.686;2024-01-30T08:55:45;21.30;;;15.67;;
56511;SDS011;42408;53.238;5.686;2024-01-30T08:58:11;24.60;;;16.27;;
56511;SDS011;42408;53.238;5.686;2024-01-30T09:00:37;22.20;;;15.07;;
56511;SDS011;42408;53.238;5.686;2024-01-30T09:03:05;20.90;;;14.93;;
56511;SDS011;42408;53.238;5.686;2024-01-30T09:05:31;20.73;;;15.80;;
56511;SDS011;42408;53.238;5.686;2024-01-30T09:07:56;22.93;;;16.93;;
56511;SDS011;42408;53.238;5.686;2024-01-30T09:10:22;24.90;;;16.07;;
56511;SDS011;42408;53.238;5.686;2024-01-30T09:12:48;25.97;;;15.37;;
56511;SDS011;42408;53.238;5.686;2024-01-30T09:15:14;23.02;;;15.73;;
56511;SDS011;42408;53.238;5.686;2024-01-30T09:17:40;23.83;;;16.77;;
56511;SDS011;42408;53.238;5.686;2024-01-30T09:20:06;22.27;;;15.50;;
56511;SDS011;42408;53.238;5.686;2024-01-30T09:22:32;23.38;;;16.23;;
56511;SDS011;42408;53.238;5.686;2024-01-30T09:24:58;23.37;;;16.57;;
56511;SDS011;42408;53.238;5.686;2024-01-30T09:27:23;25.43;;;16.83;;
56511;SDS011;42408;53.238;5.686;2024-01-30T09:29:49;21.40;;;16.17;;
56511;SDS011;42408;53.238;5.686;2024-01-30T09:32:15;25.23;;;16.93;;
56511;SDS011;42408;53.238;5.686;2024-01-30T09:34:41;22.10;;;15.63;;
56511;SDS011;42408;53.238;5.686;2024-01-30T09:37:07;22.97;;;15.70;;
56511;SDS011;42408;53.238;5.686;2024-01-30T09:39:33;24.58;;;16.10;;
56511;SDS011;42408;53.238;5.686;2024-01-30T09:44:51;22.27;;;15.52;;
56511;SDS011;42408;53.238;5.686;2024-01-30T09:47:18;21.15;;;15.77;;
56511;SDS011;42408;53.238;5.686;2024-01-30T09:49:44;23.30;;;16.13;;
56511;SDS011;42408;53.238;5.686;2024-01-30T09:52:09;22.73;;;14.83;;
56511;SDS011;42408;53.238;5.686;2024-01-30T09:54:36;21.58;;;16.05;;
56511;SDS011;42408;53.238;5.686;2024-01-30T09:57:03;21.00;;;15.98;;
56511;SDS011;42408;53.238;5.686;2024-01-30T09:59:29;21.98;;;15.93;;
56511;SDS011;42408;53.238;5.686;2024-01-30T10:01:55;23.43;;;15.47;;
56511;SDS011;42408;53.238;5.686;2024-01-30T10:04:21;23.27;;;15.57;;
56511;SDS011;42408;53.238;5.686;2024-01-30T10:06:47;23.27;;;13.83;;
56511;SDS011;42408;53.238;5.686;2024-01-30T10:09:13;23.47;;;13.50;;
56511;SDS011;42408;53.238;5.686;2024-01-30T10:11:38;22.50;;;13.37;;
56511;SDS011;42408;53.238;5.686;2024-01-30T10:14:04;23.87;;;13.53;;
56511;SDS011;42408;53.238;5.686;2024-01-30T10:16:30;22.83;;;13.60;;
56511;SDS011;42408;53.238;5.686;2024-01-30T10:18:56;24.40;;;12.50;;
56511;SDS011;42408;53.238;5.686;2024-01-30T10:21:21;22.70;;;11.30;;
56511;SDS011;42408;53.238;5.686;2024-01-30T10:23:47;20.47;;;11.43;;
56511;SDS011;42408;53.238;5.686;2024-01-30T10:26:13;22.50;;;9.37;;
56511;SDS011;42408;53.238;5.686;2024-01-30T10:28:41;18.08;;;8.45;;
56511;SDS011;42408;53.238;5.686;2024-01-30T10:31:06;19.70;;;8.67;;
56511;SDS011;42408;53.238;5.686;2024-01-30T10:33:32;20.87;;;8.10;;
56511;SDS011;42408;53.238;5.686;2024-01-30T10:36:02;20.25;;;8.10;;
56511;SDS011;42408;53.238;5.686;2024-01-30T10:38:29;16.15;;;7.18;;
56511;SDS011;42408;53.238;5.686;2024-01-30T10:43:22;15.00;;;6.38;;
56511;SDS011;42408;53.238;5.686;2024-01-30T10:45:55;17.42;;;6.22;;
56511;SDS011;42408;53.238;5.686;2024-01-30T10:48:28;13.23;;;5.45;;
56511;SDS011;42408;53.238;5.686;2024-01-30T10:50:55;12.00;;;4.68;;
56511;SDS011;42408;53.238;5.686;2024-01-30T10:53:24;14.82;;;4.55;;
56511;SDS011;42408;53.238;5.686;2024-01-30T10:55:51;11.60;;;4.23;;
56511;SDS011;42408;53.238;5.686;2024-01-30T10:58:18;13.48;;;5.10;;
56511;SDS011;42408;53.238;5.686;2024-01-30T11:00:44;11.43;;;5.07;;
56511;SDS011;42408;53.238;5.686;2024-01-30T11:03:10;12.48;;;5.20;;
56511;SDS011;42408;53.238;5.686;2024-01-30T11:05:40;13.70;;;6.38;;
56511;SDS011;42408;53.238;5.686;2024-01-30T11:08:12;13.20;;;4.88;;
56511;SDS011;42408;53.238;5.686;2024-01-30T11:10:47;14.40;;;4.95;;
56511;SDS011;42408;53.238;5.686;2024-01-30T11:13:14;11.80;;;4.63;;
56511;SDS011;42408;53.238;5.686;2024-01-30T11:15:40;7.70;;;4.47;;
56511;SDS011;42408;53.238;5.686;2024-01-30T11:18:05;12.73;;;4.60;;
56511;SDS011;42408;53.238;5.686;2024-01-30T11:20:31;12.30;;;4.73;;
56511;SDS011;42408;53.238;5.686;2024-01-30T11:22:57;9.60;;;4.63;;
56511;SDS011;42408;53.238;5.686;2024-01-30T11:27:51;12.18;;;4.70;;
56511;SDS011;42408;53.238;5.686;2024-01-30T11:30:28;10.60;;;3.33;;
56511;SDS011;42408;53.238;5.686;2024-01-30T11:35:30;11.90;;;3.85;;
56511;SDS011;42408;53.238;5.686;2024-01-30T11:38:02;9.48;;;3.80;;
56511;SDS011;42408;53.238;5.686;2024-01-30T11:42:55;8.95;;;3.42;;
56511;SDS011;42408;53.238;5.686;2024-01-30T11:45:23;8.48;;;3.67;;
56511;SDS011;42408;53.238;5.686;2024-01-30T11:47:48;12.87;;;3.70;;
56511;SDS011;42408;53.238;5.686;2024-01-30T11:50:14;8.90;;;3.70;;
56511;SDS011;42408;53.238;5.686;2024-01-30T11:52:40;8.85;;;3.47;;
56511;SDS011;42408;53.238;5.686;2024-01-30T11:55:06;6.18;;;3.13;;
56511;SDS011;42408;53.238;5.686;2024-01-30T11:57:33;10.88;;;4.43;;
56511;SDS011;42408;53.238;5.686;2024-01-30T12:00:01;10.65;;;3.40;;
56511;SDS011;42408;53.238;5.686;2024-01-30T12:02:33;11.82;;;3.95;;
56511;SDS011;42408;53.238;5.686;2024-01-30T12:05:02;8.10;;;3.63;;
56511;SDS011;42408;53.238;5.686;2024-01-30T12:07:29;9.73;;;3.25;;
56511;SDS011;42408;53.238;5.686;2024-01-30T12:09:55;10.53;;;3.20;;
56511;SDS011;42408;53.238;5.686;2024-01-30T12:12:25;7.90;;;3.13;;
56511;SDS011;42408;53.238;5.686;2024-01-30T12:14:51;6.10;;;2.60;;
56511;SDS011;42408;53.238;5.686;2024-01-30T12:17:30;9.68;;;3.63;;
56511;SDS011;42408;53.238;5.686;2024-01-30T12:20:06;10.60;;;3.15;;
56511;SDS011;42408;53.238;5.686;2024-01-30T12:22:37;9.25;;;3.00;;
56511;SDS011;42408;53.238;5.686;2024-01-30T12:25:10;7.53;;;2.75;;
56511;SDS011;42408;53.238;5.686;2024-01-30T12:27:37;9.57;;;3.15;;
56511;SDS011;42408;53.238;5.686;2024-01-30T12:30:09;7.03;;;2.45;;
56511;SDS011;42408;53.238;5.686;2024-01-30T12:32:39;7.78;;;2.83;;
56511;SDS011;42408;53.238;5.686;2024-01-30T12:35:11;7.47;;;2.90;;
56511;SDS011;42408;53.238;5.686;2024-01-30T12:37:40;10.02;;;3.83;;
56511;SDS011;42408;53.238;5.686;2024-01-30T12:40:07;9.38;;;2.70;;
56511;SDS011;42408;53.238;5.686;2024-01-30T12:42:34;9.05;;;3.05;;
56511;SDS011;42408;53.238;5.686;2024-01-30T12:45:01;9.77;;;3.10;;
56511;SDS011;42408;53.238;5.686;2024-01-30T12:47:28;10.30;;;3.00;;
56511;SDS011;42408;53.238;5.686;2024-01-30T12:49:54;6.30;;;2.77;;
56511;SDS011;42408;53.238;5.686;2024-01-30T12:52:20;7.73;;;2.80;;
56511;SDS011;42408;53.238;5.686;2024-01-30T12:54:47;9.98;;;2.60;;
56511;SDS011;42408;53.238;5.686;2024-01-30T12:57:15;7.13;;;2.45;;
56511;SDS011;42408;53.238;5.686;2024-01-30T12:59:42;7.88;;;2.42;;
56511;SDS011;42408;53.238;5.686;2024-01-30T13:02:09;7.45;;;2.75;;
56511;SDS011;42408;53.238;5.686;2024-01-30T13:04:35;9.73;;;2.63;;
56511;SDS011;42408;53.238;5.686;2024-01-30T13:07:01;10.07;;;2.60;;
56511;SDS011;42408;53.238;5.686;2024-01-30T13:09:27;8.70;;;2.70;;
56511;SDS011;42408;53.238;5.686;2024-01-30T13:11:54;7.97;;;2.55;;
56511;SDS011;42408;53.238;5.686;2024-01-30T13:14:19;9.33;;;2.87;;
56511;SDS011;42408;53.238;5.686;2024-01-30T13:16:45;6.80;;;2.73;;
56511;SDS011;42408;53.238;5.686;2024-01-30T13:19:11;8.43;;;2.83;;
56511;SDS011;42408;53.238;5.686;2024-01-30T13:21:37;8.60;;;2.80;;
56511;SDS011;42408;53.238;5.686;2024-01-30T13:24:02;6.33;;;2.30;;
56511;SDS011;42408;53.238;5.686;2024-01-30T13:26:28;7.95;;;2.95;;
56511;SDS011;42408;53.238;5.686;2024-01-30T13:28:56;6.20;;;2.83;;
56511;SDS011;42408;53.238;5.686;2024-01-30T13:31:21;6.97;;;2.40;;
56511;SDS011;42408;53.238;5.686;2024-01-30T13:33:47;6.63;;;2.70;;
56511;SDS011;42408;53.238;5.686;2024-01-30T13:36:14;7.30;;;2.50;;
56511;SDS011;42408;53.238;5.686;2024-01-30T13:38:40;9.77;;;2.58;;
56511;SDS011;42408;53.238;5.686;2024-01-30T13:41:05;6.57;;;2.50;;
56511;SDS011;42408;53.238;5.686;2024-01-30T13:43:31;7.00;;;2.50;;
56511;SDS011;42408;53.238;5.686;2024-01-30T13:45:57;8.50;;;2.77;;
56511;SDS011;42408;53.238;5.686;2024-01-30T13:48:22;7.13;;;3.40;;
56511;SDS011;42408;53.238;5.686;2024-01-30T13:50:48;7.97;;;2.60;;
56511;SDS011;42408;53.238;5.686;2024-01-30T13:53:14;8.53;;;2.73;;
56511;SDS011;42408;53.238;5.686;2024-01-30T13:55:39;6.03;;;2.50;;
56511;SDS011;42408;53.238;5.686;2024-01-30T13:58:05;7.43;;;2.60;;
56511;SDS011;42408;53.238;5.686;2024-01-30T14:00:32;5.97;;;2.65;;
56511;SDS011;42408;53.238;5.686;2024-01-30T14:02:58;7.72;;;3.20;;
56511;SDS011;42408;53.238;5.686;2024-01-30T14:05:25;8.07;;;3.38;;
56511;SDS011;42408;53.238;5.686;2024-01-30T14:07:52;7.95;;;3.03;;
56511;SDS011;42408;53.238;5.686;2024-01-30T14:10:18;7.05;;;3.08;;
56511;SDS011;42408;53.238;5.686;2024-01-30T14:12:44;6.90;;;3.07;;
56511;SDS011;42408;53.238;5.686;2024-01-30T14:15:10;8.17;;;3.07;;
56511;SDS011;42408;53.238;5.686;2024-01-30T14:17:36;7.53;;;2.92;;
56511;SDS011;42408;53.238;5.686;2024-01-30T14:20:02;8.68;;;3.28;;
56511;SDS011;42408;53.238;5.686;2024-01-30T14:22:33;8.10;;;4.45;;
56511;SDS011;42408;53.238;5.686;2024-01-30T14:27:25;9.45;;;4.00;;
56511;SDS011;42408;53.238;5.686;2024-01-30T14:29:51;9.50;;;3.70;;
56511;SDS011;42408;53.238;5.686;2024-01-30T14:32:16;9.97;;;3.93;;
56511;SDS011;42408;53.238;5.686;2024-01-30T14:34:42;12.50;;;4.60;;
56511;SDS011;42408;53.238;5.686;2024-01-30T14:37:08;10.97;;;4.57;;
56511;SDS011;42408;53.238;5.686;2024-01-30T14:39:34;12.77;;;5.50;;
56511;SDS011;42408;53.238;5.686;2024-01-30T14:42:02;9.23;;;3.42;;
56511;SDS011;42408;53.238;5.686;2024-01-30T14:44:28;8.75;;;4.22;;